createdAt,value
2023-01-18T00:00:02.784Z,922.31
2023-01-18T00:01:02.779Z,922.29
2023-01-18T00:02:02.805Z,922.32
2023-01-18T00:03:02.735Z,922.27
2023-01-18T00:04:02.752Z,922.32
2023-01-18T00:05:02.777Z,922.31
2023-01-18T00:06:02.792Z,922.31
2023-01-18T00:07:02.698Z,922.33
2023-01-18T00:08:02.669Z,922.33
2023-01-18T00:09:02.685Z,922.32
2023-01-18T00:10:02.661Z,922.32
2023-01-18T00:11:02.641Z,922.34
2023-01-18T00:12:02.633Z,922.32
2023-01-18T00:13:02.641Z,922.29
2023-01-18T00:14:02.624Z,922.21
2023-01-18T00:15:02.633Z,922.25
2023-01-18T00:16:02.626Z,922.23
2023-01-18T00:17:02.577Z,922.22
2023-01-18T00:18:02.564Z,922.26
2023-01-18T00:19:02.594Z,922.26
2023-01-18T00:20:02.578Z,922.24
2023-01-18T00:21:02.543Z,922.26
2023-01-18T00:22:02.551Z,922.25
2023-01-18T00:23:02.523Z,922.26
2023-01-18T00:24:02.521Z,922.28
2023-01-18T00:25:02.494Z,922.25
2023-01-18T00:26:02.475Z,922.28
2023-01-18T00:27:02.469Z,922.27
2023-01-18T00:28:02.493Z,922.28
2023-01-18T00:29:02.445Z,922.23
2023-01-18T00:30:02.447Z,922.29
2023-01-18T00:31:02.494Z,922.26
2023-01-18T00:32:02.411Z,922.27
2023-01-18T00:33:02.417Z,922.32
2023-01-18T00:34:02.399Z,922.32
2023-01-18T00:35:02.391Z,922.33
2023-01-18T00:36:02.435Z,922.34
2023-01-18T00:37:02.358Z,922.43
2023-01-18T00:38:02.372Z,922.34
2023-01-18T00:39:02.337Z,922.35
2023-01-18T00:40:02.374Z,922.34
2023-01-18T00:41:02.335Z,922.31
2023-01-18T00:42:02.297Z,922.34
2023-01-18T00:43:02.293Z,922.28
2023-01-18T00:44:02.276Z,922.30
2023-01-18T00:45:02.281Z,922.29
2023-01-18T00:46:02.361Z,922.32
2023-01-18T00:47:02.250Z,922.28
2023-01-18T00:48:02.230Z,922.33
2023-01-18T00:49:02.246Z,922.31
2023-01-18T00:50:02.209Z,922.31
2023-01-18T00:51:02.203Z,922.27
2023-01-18T00:52:02.204Z,922.28
2023-01-18T00:53:02.182Z,922.30
2023-01-18T00:54:02.188Z,922.32
2023-01-18T00:55:02.179Z,922.31
2023-01-18T00:56:02.164Z,922.33
2023-01-18T00:57:02.161Z,922.28
2023-01-18T00:58:02.127Z,922.33
2023-01-18T00:59:02.114Z,922.30
2023-01-18T01:00:02.115Z,922.32
2023-01-18T01:01:02.236Z,922.31
2023-01-18T01:02:02.279Z,922.28
2023-01-18T01:03:02.076Z,922.29
2023-01-18T01:04:02.097Z,922.31
2023-01-18T01:05:02.057Z,922.33
2023-01-18T01:06:02.055Z,922.30
2023-01-18T01:07:02.025Z,922.31
2023-01-18T01:08:02.041Z,922.28
2023-01-18T01:09:02.006Z,922.26
2023-01-18T01:10:02.006Z,922.26
2023-01-18T01:11:02.008Z,922.22
2023-01-18T01:12:02.022Z,922.26
2023-01-18T01:13:01.966Z,922.30
2023-01-18T01:14:01.945Z,922.26
2023-01-18T01:15:01.979Z,922.27
2023-01-18T01:16:01.951Z,922.28
2023-01-18T01:17:01.920Z,922.26
2023-01-18T01:18:01.902Z,922.27
2023-01-18T01:19:01.917Z,922.30
2023-01-18T01:20:01.877Z,922.31
2023-01-18T01:21:01.874Z,922.27
2023-01-18T01:22:01.868Z,922.24
2023-01-18T01:23:01.873Z,922.30
2023-01-18T01:24:01.855Z,922.25
2023-01-18T01:25:01.851Z,922.29
2023-01-18T01:26:01.829Z,922.23
2023-01-18T01:27:01.822Z,922.31
2023-01-18T01:28:01.804Z,922.25
2023-01-18T01:29:01.784Z,922.27
2023-01-18T01:30:01.788Z,922.23
2023-01-18T01:31:01.814Z,922.23
2023-01-18T01:32:01.775Z,922.23
2023-01-18T01:33:01.752Z,922.22
2023-01-18T01:34:01.757Z,922.22
2023-01-18T01:35:01.726Z,922.25
2023-01-18T01:36:01.732Z,922.25
2023-01-18T01:37:01.746Z,922.16
2023-01-18T01:38:01.684Z,922.18
2023-01-18T01:39:01.679Z,922.24
2023-01-18T01:40:01.689Z,922.21
2023-01-18T01:41:01.676Z,922.22
2023-01-18T01:42:01.637Z,922.23
2023-01-18T01:43:01.631Z,922.17
2023-01-18T01:44:01.618Z,922.14
2023-01-18T01:45:01.623Z,922.12
2023-01-18T01:46:01.690Z,922.17
2023-01-18T01:47:01.604Z,922.08
2023-01-18T01:48:01.569Z,922.15
2023-01-18T01:49:01.565Z,922.14
2023-01-18T01:50:01.550Z,922.13
2023-01-18T01:51:01.547Z,922.16
2023-01-18T01:52:01.558Z,922.17
2023-01-18T01:53:01.522Z,922.18
2023-01-18T01:54:02.017Z,922.22
2023-01-18T01:55:01.536Z,922.27
2023-01-18T01:56:01.509Z,922.19
2023-01-18T01:57:01.537Z,922.22
2023-01-18T01:58:04.379Z,922.24
2023-01-18T01:59:01.508Z,922.26
2023-01-18T02:00:01.474Z,922.24
2023-01-18T02:01:01.536Z,922.21
2023-01-18T02:02:01.518Z,922.21
2023-01-18T02:03:01.720Z,922.20
2023-01-18T02:04:01.428Z,922.20
2023-01-18T02:05:01.393Z,922.21
2023-01-18T02:06:01.380Z,922.21
2023-01-18T02:07:01.364Z,922.19
2023-01-18T02:08:01.346Z,922.19
2023-01-18T02:09:01.363Z,922.18
2023-01-18T02:10:01.356Z,922.18
2023-01-18T02:11:01.318Z,922.17
2023-01-18T02:12:01.321Z,922.17
2023-01-18T02:13:01.304Z,922.20
2023-01-18T02:14:01.306Z,922.21
2023-01-18T02:15:01.281Z,922.24
2023-01-18T02:16:01.286Z,922.22
2023-01-18T02:17:01.324Z,922.27
2023-01-18T02:18:01.239Z,922.25
2023-01-18T02:19:01.227Z,922.24
2023-01-18T02:20:01.256Z,922.23
2023-01-18T02:21:01.211Z,922.17
2023-01-18T02:22:01.210Z,922.14
2023-01-18T02:23:01.185Z,922.13
2023-01-18T02:24:01.178Z,922.13
2023-01-18T02:25:01.195Z,922.09
2023-01-18T02:26:01.147Z,922.10
2023-01-18T02:27:01.149Z,922.09
2023-01-18T02:28:01.144Z,922.10
2023-01-18T02:29:01.221Z,922.10
2023-01-18T02:30:01.113Z,922.10
2023-01-18T02:31:01.178Z,922.14
2023-01-18T02:32:01.090Z,922.13
2023-01-18T02:33:01.085Z,922.16
2023-01-18T02:34:01.178Z,922.16
2023-01-18T02:35:01.088Z,922.08
2023-01-18T02:36:01.042Z,922.10
2023-01-18T02:37:01.046Z,922.13
2023-01-18T02:38:01.036Z,922.12
2023-01-18T02:39:01.022Z,922.11
2023-01-18T02:40:01.021Z,922.12
2023-01-18T02:41:01.001Z,922.17
2023-01-18T02:42:00.982Z,922.17
2023-01-18T02:43:01.056Z,922.18
2023-01-18T02:44:00.988Z,922.17
2023-01-18T02:45:00.940Z,922.18
2023-01-18T02:46:00.980Z,922.14
2023-01-18T02:47:00.921Z,922.14
2023-01-18T02:48:00.909Z,922.19
2023-01-18T02:49:00.919Z,922.19
2023-01-18T02:50:00.891Z,922.16
2023-01-18T02:51:00.884Z,922.21
2023-01-18T02:52:00.872Z,922.20
2023-01-18T02:53:00.872Z,922.19
2023-01-18T02:54:00.870Z,922.22
2023-01-18T02:55:00.834Z,922.24
2023-01-18T02:56:00.823Z,922.24
2023-01-18T02:57:00.817Z,922.24
2023-01-18T02:58:00.810Z,922.24
2023-01-18T02:59:00.810Z,922.19
2023-01-18T03:00:00.795Z,922.23
2023-01-18T03:01:00.806Z,922.18
2023-01-18T03:02:00.782Z,922.21
2023-01-18T03:03:01.291Z,922.18
2023-01-18T03:04:00.764Z,922.16
2023-01-18T03:05:00.730Z,922.20
2023-01-18T03:06:00.721Z,922.22
2023-01-18T03:07:00.702Z,922.19
2023-01-18T03:08:00.707Z,922.20
2023-01-18T03:09:00.707Z,922.17
2023-01-18T03:10:00.672Z,922.22
2023-01-18T03:11:00.670Z,922.15
2023-01-18T03:12:00.649Z,922.17
2023-01-18T03:13:00.790Z,922.12
2023-01-18T03:14:00.637Z,922.11
2023-01-18T03:15:00.639Z,922.15
2023-01-18T03:16:00.655Z,922.16
2023-01-18T03:17:00.606Z,922.11
2023-01-18T03:18:00.607Z,922.13
2023-01-18T03:19:00.565Z,922.12
2023-01-18T03:20:00.578Z,922.13
2023-01-18T03:21:00.543Z,922.12
2023-01-18T03:22:00.535Z,922.12
2023-01-18T03:23:00.992Z,922.14
2023-01-18T03:24:00.509Z,922.11
2023-01-18T03:25:00.528Z,922.07
2023-01-18T03:26:00.499Z,922.11
2023-01-18T03:27:00.547Z,922.11
2023-01-18T03:28:00.465Z,922.11
2023-01-18T03:29:00.465Z,922.11
2023-01-18T03:30:00.464Z,922.18
2023-01-18T03:31:00.459Z,922.18
2023-01-18T03:32:00.438Z,922.11
2023-01-18T03:33:00.659Z,922.06
2023-01-18T03:34:00.418Z,922.10
2023-01-18T03:35:00.604Z,922.07
2023-01-18T03:36:00.377Z,922.04
2023-01-18T03:37:00.369Z,922.09
2023-01-18T03:38:00.352Z,922.07
2023-01-18T03:39:03.714Z,922.10
2023-01-18T03:40:00.329Z,922.10
2023-01-18T03:41:00.347Z,922.04
2023-01-18T03:42:00.313Z,922.07
2023-01-18T03:43:00.421Z,922.07
2023-01-18T03:44:00.287Z,922.11
2023-01-18T03:45:00.302Z,922.10
2023-01-18T03:46:00.302Z,922.09
2023-01-18T03:47:00.272Z,922.14
2023-01-18T03:48:00.280Z,922.13
2023-01-18T03:49:00.236Z,922.12
2023-01-18T03:50:00.221Z,922.07
2023-01-18T03:51:00.241Z,922.09
2023-01-18T03:52:00.217Z,922.09
2023-01-18T03:53:00.311Z,922.03
2023-01-18T03:54:00.177Z,922.01
2023-01-18T03:55:00.206Z,922.00
2023-01-18T03:56:00.162Z,921.98
2023-01-18T03:57:00.148Z,922.02
2023-01-18T03:58:00.132Z,922.01
2023-01-18T03:59:00.144Z,922.02
2023-01-18T04:00:00.157Z,922.03
2023-01-18T04:01:00.191Z,922.03
2023-01-18T04:02:00.188Z,922.05
2023-01-18T04:03:00.626Z,922.01
2023-01-18T04:04:00.156Z,922.05
2023-01-18T04:05:00.092Z,922.03
2023-01-18T04:06:00.079Z,922.07
2023-01-18T04:07:00.044Z,922.09
2023-01-18T04:08:00.028Z,922.14
2023-01-18T04:09:00.051Z,922.12
2023-01-18T04:10:00.039Z,922.08
2023-01-18T04:11:00.002Z,922.13
2023-01-18T04:11:59.999Z,922.05
2023-01-18T04:13:00.494Z,922.10
2023-01-18T04:13:59.959Z,922.07
2023-01-18T04:14:59.960Z,922.07
2023-01-18T04:16:00.028Z,922.05
2023-01-18T04:16:59.931Z,922.10
2023-01-18T04:17:59.917Z,922.11
2023-01-18T04:18:59.911Z,922.11
2023-01-18T04:19:59.984Z,922.10
2023-01-18T04:20:59.897Z,922.12
2023-01-18T04:21:59.891Z,922.16
2023-01-18T04:23:00.453Z,922.17
2023-01-18T04:23:59.848Z,922.19
2023-01-18T04:24:59.853Z,922.20
2023-01-18T04:25:59.897Z,922.22
2023-01-18T04:26:59.836Z,922.21
2023-01-18T04:27:59.818Z,922.20
2023-01-18T04:28:59.807Z,922.26
2023-01-18T04:29:59.792Z,922.24
2023-01-18T04:30:59.853Z,922.23
2023-01-18T04:31:59.770Z,922.25
2023-01-18T04:33:00.189Z,922.23
2023-01-18T04:33:59.760Z,922.24
2023-01-18T04:34:59.735Z,922.23
2023-01-18T04:35:59.758Z,922.27
2023-01-18T04:36:59.705Z,922.28
2023-01-18T04:37:59.714Z,922.31
2023-01-18T04:38:59.681Z,922.26
2023-01-18T04:39:59.681Z,922.30
2023-01-18T04:40:59.678Z,922.33
2023-01-18T04:41:59.672Z,922.29
2023-01-18T04:42:59.990Z,922.32
2023-01-18T04:43:59.630Z,922.28
2023-01-18T04:44:59.620Z,922.28
2023-01-18T04:45:59.624Z,922.29
2023-01-18T04:46:59.617Z,922.31
2023-01-18T04:47:59.611Z,922.32
2023-01-18T04:48:59.569Z,922.30
2023-01-18T04:49:59.600Z,922.30
2023-01-18T04:50:59.551Z,922.35
2023-01-18T04:51:59.591Z,922.34
2023-01-18T04:53:00.218Z,922.31
2023-01-18T04:53:59.528Z,922.32
2023-01-18T04:54:59.536Z,922.35
2023-01-18T04:55:59.495Z,922.36
2023-01-18T04:56:59.482Z,922.33
2023-01-18T04:57:59.487Z,922.36
2023-01-18T04:58:59.474Z,922.34
2023-01-18T04:59:59.468Z,922.35
2023-01-18T05:00:59.517Z,922.35
2023-01-18T05:01:59.465Z,922.32
2023-01-18T05:02:59.826Z,922.36
2023-01-18T05:03:59.462Z,922.35
2023-01-18T05:04:59.392Z,922.38
2023-01-18T05:05:59.468Z,922.37
2023-01-18T05:06:59.468Z,922.35
2023-01-18T05:07:59.417Z,922.33
2023-01-18T05:08:59.351Z,922.39
2023-01-18T05:09:59.347Z,922.37
2023-01-18T05:10:59.325Z,922.33
2023-01-18T05:11:59.370Z,922.32
2023-01-18T05:12:59.754Z,922.33
2023-01-18T05:13:59.301Z,922.36
2023-01-18T05:14:59.281Z,922.34
2023-01-18T05:16:04.538Z,922.32
2023-01-18T05:16:59.262Z,922.33
2023-01-18T05:17:59.271Z,922.36
2023-01-18T05:18:59.239Z,922.38
2023-01-18T05:19:59.231Z,922.35
2023-01-18T05:20:59.215Z,922.43
2023-01-18T05:21:59.214Z,922.41
2023-01-18T05:22:59.600Z,922.42
2023-01-18T05:23:59.222Z,922.49
2023-01-18T05:24:59.176Z,922.50
2023-01-18T05:25:59.245Z,922.48
2023-01-18T05:26:59.176Z,922.49
2023-01-18T05:27:59.179Z,922.53
2023-01-18T05:28:59.123Z,922.53
2023-01-18T05:29:59.116Z,922.50
2023-01-18T05:30:59.121Z,922.53
2023-01-18T05:31:59.103Z,922.53
2023-01-18T05:32:59.523Z,922.54
2023-01-18T05:33:59.090Z,922.53
2023-01-18T05:34:59.074Z,922.55
2023-01-18T05:35:59.051Z,922.49
2023-01-18T05:36:59.053Z,922.54
2023-01-18T05:37:59.054Z,922.53
2023-01-18T05:38:59.024Z,922.51
2023-01-18T05:39:59.040Z,922.55
2023-01-18T05:40:59.018Z,922.57
2023-01-18T05:42:00.225Z,922.55
2023-01-18T05:42:59.333Z,922.56
2023-01-18T05:43:58.971Z,922.56
2023-01-18T05:44:58.952Z,922.57
2023-01-18T05:45:59.156Z,922.53
2023-01-18T05:46:58.928Z,922.60
2023-01-18T05:47:58.938Z,922.63
2023-01-18T05:48:58.912Z,922.63
2023-01-18T05:49:58.897Z,922.59
2023-01-18T05:50:58.882Z,922.63
2023-01-18T05:51:58.886Z,922.62
2023-01-18T05:52:59.336Z,922.68
2023-01-18T05:53:58.857Z,922.67
2023-01-18T05:54:58.835Z,922.70
2023-01-18T05:55:58.884Z,922.70
2023-01-18T05:56:58.815Z,922.69
2023-01-18T05:57:58.820Z,922.71
2023-01-18T05:58:58.812Z,922.73
2023-01-18T05:59:58.786Z,922.73
2023-01-18T06:00:58.849Z,922.73
2023-01-18T06:01:58.885Z,922.74
2023-01-18T06:02:59.129Z,922.72
2023-01-18T06:03:58.751Z,922.74
2023-01-18T06:04:58.729Z,922.77
2023-01-18T06:05:58.737Z,922.75
2023-01-18T06:06:58.707Z,922.76
2023-01-18T06:07:58.696Z,922.78
2023-01-18T06:08:58.684Z,922.74
2023-01-18T06:09:58.707Z,922.74
2023-01-18T06:10:58.668Z,922.71
2023-01-18T06:11:58.706Z,922.72
2023-01-18T06:12:58.978Z,922.71
2023-01-18T06:13:58.638Z,922.74
2023-01-18T06:14:58.616Z,922.70
2023-01-18T06:15:58.640Z,922.70
2023-01-18T06:16:58.593Z,922.68
2023-01-18T06:17:58.588Z,922.69
2023-01-18T06:18:58.590Z,922.66
2023-01-18T06:19:58.567Z,922.73
2023-01-18T06:21:01.126Z,922.71
2023-01-18T06:21:58.576Z,922.76
2023-01-18T06:22:58.978Z,922.73
2023-01-18T06:23:58.517Z,922.77
2023-01-18T06:24:58.508Z,922.83
2023-01-18T06:25:58.513Z,922.80
2023-01-18T06:26:58.498Z,922.81
2023-01-18T06:27:58.496Z,922.83
2023-01-18T06:28:58.510Z,922.83
2023-01-18T06:29:58.463Z,922.85
2023-01-18T06:30:58.448Z,922.85
2023-01-18T06:31:58.524Z,922.88
2023-01-18T06:32:58.773Z,922.85
2023-01-18T06:33:58.419Z,922.84
2023-01-18T06:34:58.391Z,922.89
2023-01-18T06:35:58.412Z,922.84
2023-01-18T06:36:58.374Z,922.86
2023-01-18T06:37:58.372Z,922.87
2023-01-18T06:38:58.350Z,922.84
2023-01-18T06:39:58.355Z,922.87
2023-01-18T06:40:58.399Z,922.86
2023-01-18T06:41:58.324Z,922.91
2023-01-18T06:42:58.624Z,922.88
2023-01-18T06:43:58.495Z,922.91
2023-01-18T06:44:58.291Z,922.92
2023-01-18T06:45:58.389Z,922.92
2023-01-18T06:46:58.262Z,922.97
2023-01-18T06:47:58.260Z,923.00
2023-01-18T06:48:58.260Z,922.98
2023-01-18T06:49:58.234Z,923.01
2023-01-18T06:50:58.259Z,923.00
2023-01-18T06:51:58.224Z,923.02
2023-01-18T06:52:59.655Z,922.97
2023-01-18T06:53:58.209Z,923.01
2023-01-18T06:54:58.172Z,923.01
2023-01-18T06:55:58.180Z,923.01
2023-01-18T06:56:58.163Z,922.99
2023-01-18T06:57:58.152Z,922.97
2023-01-18T06:58:58.150Z,922.97
2023-01-18T06:59:58.147Z,923.00
2023-01-18T07:00:58.236Z,923.04
2023-01-18T07:01:58.253Z,923.06
2023-01-18T07:02:58.495Z,923.03
2023-01-18T07:03:58.158Z,923.10
2023-01-18T07:04:58.067Z,923.06
2023-01-18T07:05:58.077Z,923.06
2023-01-18T07:06:58.045Z,923.09
2023-01-18T07:07:58.039Z,923.15
2023-01-18T07:08:58.023Z,923.14
2023-01-18T07:09:58.046Z,923.17
2023-01-18T07:10:58.000Z,923.20
2023-01-18T07:11:57.997Z,923.19
2023-01-18T07:12:58.240Z,923.20
2023-01-18T07:13:57.966Z,923.29
2023-01-18T07:14:57.976Z,923.25
2023-01-18T07:16:00.657Z,923.29
2023-01-18T07:16:58.006Z,923.32
2023-01-18T07:17:57.925Z,923.34
2023-01-18T07:18:57.910Z,923.33
2023-01-18T07:19:57.903Z,923.41
2023-01-18T07:20:57.907Z,923.32
2023-01-18T07:21:57.895Z,923.38
2023-01-18T07:22:58.256Z,923.37
2023-01-18T07:23:57.860Z,923.38
2023-01-18T07:24:57.868Z,923.39
2023-01-18T07:25:57.856Z,923.40
2023-01-18T07:26:57.823Z,923.37
2023-01-18T07:27:57.859Z,923.41
2023-01-18T07:28:57.801Z,923.40
2023-01-18T07:29:57.797Z,923.43
2023-01-18T07:30:57.794Z,923.44
2023-01-18T07:31:57.914Z,923.48
2023-01-18T07:32:58.110Z,923.53
2023-01-18T07:33:57.769Z,923.47
2023-01-18T07:34:59.495Z,923.46
2023-01-18T07:35:57.731Z,923.45
2023-01-18T07:36:57.712Z,923.50
2023-01-18T07:37:57.728Z,923.49
2023-01-18T07:38:57.683Z,923.43
2023-01-18T07:39:57.700Z,923.44
2023-01-18T07:40:57.676Z,923.46
2023-01-18T07:41:57.703Z,923.45
2023-01-18T07:42:58.097Z,923.42
2023-01-18T07:43:57.635Z,923.40
2023-01-18T07:44:57.624Z,923.42
2023-01-18T07:45:57.655Z,923.39
2023-01-18T07:46:57.600Z,923.41
2023-01-18T07:47:57.632Z,923.43
2023-01-18T07:48:57.576Z,923.44
2023-01-18T07:49:57.572Z,923.45
2023-01-18T07:50:57.569Z,923.52
2023-01-18T07:51:57.570Z,923.51
2023-01-18T07:52:58.019Z,923.53
2023-01-18T07:53:57.530Z,923.54
2023-01-18T07:54:57.512Z,923.58
2023-01-18T07:55:57.522Z,923.55
2023-01-18T07:56:57.493Z,923.57
2023-01-18T07:57:57.497Z,923.60
2023-01-18T07:58:57.493Z,923.60
2023-01-18T07:59:57.461Z,923.62
2023-01-18T08:00:57.472Z,923.67
2023-01-18T08:01:57.504Z,923.67
2023-01-18T08:02:59.143Z,923.67
2023-01-18T08:03:57.434Z,923.72
2023-01-18T08:04:57.403Z,923.73
2023-01-18T08:05:57.390Z,923.80
2023-01-18T08:06:57.388Z,923.85
2023-01-18T08:07:57.391Z,923.79
2023-01-18T08:08:57.397Z,923.85
2023-01-18T08:09:57.378Z,923.79
2023-01-18T08:10:57.333Z,923.83
2023-01-18T08:11:57.327Z,923.82
2023-01-18T08:12:57.749Z,923.84
2023-01-18T08:13:57.305Z,923.84
2023-01-18T08:14:57.305Z,923.83
2023-01-18T08:15:57.425Z,923.86
2023-01-18T08:16:57.265Z,923.88
2023-01-18T08:17:57.265Z,923.85
2023-01-18T08:18:57.244Z,923.88
2023-01-18T08:19:57.260Z,923.94
2023-01-18T08:20:57.235Z,923.94
2023-01-18T08:21:57.258Z,923.95
2023-01-18T08:22:57.675Z,923.98
2023-01-18T08:23:57.195Z,924.00
2023-01-18T08:24:57.194Z,923.95
2023-01-18T08:25:57.171Z,923.97
2023-01-18T08:26:57.174Z,923.99
2023-01-18T08:27:57.182Z,924.02
2023-01-18T08:28:57.134Z,923.99
2023-01-18T08:29:59.667Z,923.98
2023-01-18T08:30:57.130Z,924.02
2023-01-18T08:31:57.122Z,923.98
2023-01-18T08:32:57.520Z,924.01
2023-01-18T08:33:57.104Z,924.04
2023-01-18T08:34:57.091Z,924.02
2023-01-18T08:35:57.143Z,924.04
2023-01-18T08:36:57.077Z,924.04
2023-01-18T08:37:57.033Z,924.05
2023-01-18T08:38:57.065Z,924.11
2023-01-18T08:39:57.023Z,924.06
2023-01-18T08:40:56.998Z,924.11
2023-01-18T08:41:57.013Z,924.12
2023-01-18T08:42:57.420Z,924.11
2023-01-18T08:43:56.968Z,924.16
2023-01-18T08:44:56.959Z,924.17
2023-01-18T08:45:56.958Z,924.15
2023-01-18T08:46:56.968Z,924.16
2023-01-18T08:47:56.939Z,924.12
2023-01-18T08:48:56.931Z,924.19
2023-01-18T08:49:56.899Z,924.20
2023-01-18T08:50:56.912Z,924.22
2023-01-18T08:51:56.921Z,924.25
2023-01-18T08:52:57.335Z,924.26
2023-01-18T08:53:56.873Z,924.27
2023-01-18T08:54:56.850Z,924.28
2023-01-18T08:55:56.834Z,924.30
2023-01-18T08:56:56.828Z,924.29
2023-01-18T08:57:56.842Z,924.32
2023-01-18T08:58:56.854Z,924.33
2023-01-18T08:59:56.796Z,924.31
2023-01-18T09:00:56.829Z,924.34
2023-01-18T09:01:56.813Z,924.37
2023-01-18T09:02:57.294Z,924.40
2023-01-18T09:03:56.768Z,924.38
2023-01-18T09:04:56.757Z,924.43
2023-01-18T09:05:56.720Z,924.41
2023-01-18T09:06:56.716Z,924.43
2023-01-18T09:07:56.815Z,924.41
2023-01-18T09:08:56.715Z,924.43
2023-01-18T09:09:56.696Z,924.46
2023-01-18T09:10:56.692Z,924.47
2023-01-18T09:11:56.651Z,924.50
2023-01-18T09:12:57.106Z,924.51
2023-01-18T09:14:01.668Z,924.53
2023-01-18T09:14:57.647Z,924.52
2023-01-18T09:15:56.660Z,924.55
2023-01-18T09:16:56.612Z,924.58
2023-01-18T09:17:56.588Z,924.63
2023-01-18T09:18:56.693Z,924.66
2023-01-18T09:19:56.567Z,924.66
2023-01-18T09:20:56.561Z,924.63
2023-01-18T09:21:56.609Z,924.73
2023-01-18T09:22:56.890Z,924.72
2023-01-18T09:23:56.569Z,924.68
2023-01-18T09:24:56.514Z,924.71
2023-01-18T09:25:56.501Z,924.73
2023-01-18T09:26:56.498Z,924.74
2023-01-18T09:27:56.484Z,924.79
2023-01-18T09:28:56.506Z,924.77
2023-01-18T09:29:56.456Z,924.73
2023-01-18T09:30:56.496Z,924.77
2023-01-18T09:31:56.436Z,924.74
2023-01-18T09:32:56.781Z,924.77
2023-01-18T09:34:00.977Z,924.75
2023-01-18T09:34:57.411Z,924.76
2023-01-18T09:35:56.404Z,924.84
2023-01-18T09:36:56.381Z,924.77
2023-01-18T09:37:56.396Z,924.77
2023-01-18T09:38:56.378Z,924.78
2023-01-18T09:39:56.380Z,924.75
2023-01-18T09:40:56.346Z,924.82
2023-01-18T09:41:56.341Z,924.80
2023-01-18T09:42:56.669Z,924.77
2023-01-18T09:43:56.318Z,924.73
2023-01-18T09:44:56.307Z,924.80
2023-01-18T09:45:56.290Z,924.78
2023-01-18T09:46:56.389Z,924.77
2023-01-18T09:47:56.274Z,924.79
2023-01-18T09:48:56.251Z,924.78
2023-01-18T09:49:56.245Z,924.79
2023-01-18T09:50:56.221Z,924.83
2023-01-18T09:51:56.208Z,924.80
2023-01-18T09:52:56.548Z,924.83
2023-01-18T09:53:56.195Z,924.83
2023-01-18T09:54:56.189Z,924.84
2023-01-18T09:55:56.228Z,924.84
2023-01-18T09:56:56.174Z,924.85
2023-01-18T09:57:56.184Z,924.86
2023-01-18T09:58:56.158Z,924.86
2023-01-18T09:59:56.121Z,924.88
2023-01-18T10:00:56.227Z,924.88
2023-01-18T10:01:56.408Z,924.93
2023-01-18T10:02:58.099Z,924.89
2023-01-18T10:03:56.100Z,924.88
2023-01-18T10:04:56.078Z,924.89
2023-01-18T10:05:56.058Z,924.95
2023-01-18T10:06:56.053Z,924.97
2023-01-18T10:07:56.045Z,924.96
2023-01-18T10:08:56.045Z,925.00
2023-01-18T10:09:56.013Z,925.00
2023-01-18T10:10:56.026Z,924.99
2023-01-18T10:11:56.021Z,925.01
2023-01-18T10:12:56.157Z,925.04
2023-01-18T10:13:55.994Z,925.01
2023-01-18T10:14:55.970Z,925.05
2023-01-18T10:15:55.986Z,925.02
2023-01-18T10:16:55.938Z,925.04
2023-01-18T10:17:55.922Z,925.03
2023-01-18T10:18:55.935Z,925.00
2023-01-18T10:19:55.899Z,925.01
2023-01-18T10:20:55.899Z,925.01
2023-01-18T10:21:55.887Z,925.04
2023-01-18T10:22:56.270Z,925.02
2023-01-18T10:23:55.877Z,925.06
2023-01-18T10:24:55.873Z,925.05
2023-01-18T10:25:55.882Z,925.07
2023-01-18T10:26:55.848Z,925.04
2023-01-18T10:27:55.831Z,925.04
2023-01-18T10:28:55.803Z,925.11
2023-01-18T10:29:55.819Z,925.11
2023-01-18T10:30:55.792Z,925.12
2023-01-18T10:31:55.791Z,925.16
2023-01-18T10:32:55.842Z,925.12
2023-01-18T10:33:55.765Z,925.18
2023-01-18T10:34:55.768Z,925.18
2023-01-18T10:35:55.755Z,925.21
2023-01-18T10:36:55.743Z,925.18
2023-01-18T10:37:55.740Z,925.19
2023-01-18T10:38:55.707Z,925.16
2023-01-18T10:39:55.679Z,925.17
2023-01-18T10:40:55.675Z,925.19
2023-01-18T10:41:55.684Z,925.22
2023-01-18T10:42:55.754Z,925.18
2023-01-18T10:43:55.655Z,925.11
2023-01-18T10:44:55.663Z,925.19
2023-01-18T10:45:55.652Z,925.16
2023-01-18T10:46:55.604Z,925.13
2023-01-18T10:47:55.595Z,925.17
2023-01-18T10:48:55.589Z,925.16
2023-01-18T10:49:55.593Z,925.15
2023-01-18T10:50:55.575Z,925.17
2023-01-18T10:51:55.549Z,925.15
2023-01-18T10:52:55.562Z,925.18
2023-01-18T10:53:55.539Z,925.20
2023-01-18T10:54:55.548Z,925.19
2023-01-18T10:55:55.524Z,925.22
2023-01-18T10:56:55.495Z,925.20
2023-01-18T10:57:55.522Z,925.23
2023-01-18T10:58:55.477Z,925.28
2023-01-18T10:59:55.478Z,925.23
2023-01-18T11:00:55.589Z,925.28
2023-01-18T11:01:55.634Z,925.26
2023-01-18T11:02:55.452Z,925.28
2023-01-18T11:03:55.422Z,925.29
2023-01-18T11:04:55.447Z,925.37
2023-01-18T11:05:55.408Z,925.40
2023-01-18T11:06:55.384Z,925.33
2023-01-18T11:07:55.364Z,925.39
2023-01-18T11:08:55.389Z,925.40
2023-01-18T11:09:55.344Z,925.43
2023-01-18T11:10:55.377Z,925.45
2023-01-18T11:11:55.326Z,925.48
2023-01-18T11:12:55.318Z,925.49
2023-01-18T11:13:55.305Z,925.49
2023-01-18T11:14:55.304Z,925.52
2023-01-18T11:15:55.297Z,925.50
2023-01-18T11:16:55.300Z,925.53
2023-01-18T11:17:55.266Z,925.50
2023-01-18T11:18:55.258Z,925.53
2023-01-18T11:19:55.263Z,925.51
2023-01-18T11:20:55.243Z,925.52
2023-01-18T11:21:55.235Z,925.57
2023-01-18T11:22:55.270Z,925.56
2023-01-18T11:23:55.221Z,925.62
2023-01-18T11:24:55.194Z,925.58
2023-01-18T11:25:55.174Z,925.63
2023-01-18T11:26:55.185Z,925.62
2023-01-18T11:27:55.166Z,925.66
2023-01-18T11:28:55.172Z,925.68
2023-01-18T11:29:55.131Z,925.68
2023-01-18T11:30:55.128Z,925.65
2023-01-18T11:31:55.171Z,925.67
2023-01-18T11:32:55.125Z,925.68
2023-01-18T11:33:55.090Z,925.76
2023-01-18T11:34:55.068Z,925.64
2023-01-18T11:35:55.182Z,925.73
2023-01-18T11:36:55.054Z,925.74
2023-01-18T11:37:55.038Z,925.70
2023-01-18T11:38:55.045Z,925.75
2023-01-18T11:39:55.024Z,925.77
2023-01-18T11:40:55.034Z,925.75
2023-01-18T11:41:55.004Z,925.77
2023-01-18T11:42:55.016Z,925.79
2023-01-18T11:43:54.978Z,925.77
2023-01-18T11:44:54.968Z,925.82
2023-01-18T11:45:55.025Z,925.79
2023-01-18T11:46:54.957Z,925.83
2023-01-18T11:47:54.957Z,925.87
2023-01-18T11:48:54.956Z,925.82
2023-01-18T11:49:54.944Z,925.88
2023-01-18T11:50:54.898Z,925.86
2023-01-18T11:51:54.878Z,925.89
2023-01-18T11:52:54.875Z,925.96
2023-01-18T11:53:54.878Z,925.92
2023-01-18T11:54:54.866Z,925.91
2023-01-18T11:55:54.840Z,925.92
2023-01-18T11:56:54.834Z,925.98
2023-01-18T11:57:54.834Z,925.99
2023-01-18T11:58:54.806Z,926.03
2023-01-18T11:59:54.824Z,926.06
2023-01-18T12:00:54.827Z,926.04
2023-01-18T12:01:54.791Z,926.06
2023-01-18T12:02:54.776Z,926.08
2023-01-18T12:03:54.784Z,926.10
2023-01-18T12:04:54.745Z,926.14
2023-01-18T12:05:54.767Z,926.12
2023-01-18T12:06:54.744Z,926.14
2023-01-18T12:07:54.705Z,926.17
2023-01-18T12:08:54.715Z,926.18
2023-01-18T12:09:54.696Z,926.17
2023-01-18T12:10:54.675Z,926.17
2023-01-18T12:11:54.658Z,926.15
2023-01-18T12:12:54.667Z,926.14
2023-01-18T12:13:54.663Z,926.20
2023-01-18T12:14:54.628Z,926.20
2023-01-18T12:15:54.617Z,926.23
2023-01-18T12:16:54.661Z,926.22
2023-01-18T12:18:11.365Z,926.22
2023-01-18T12:18:55.594Z,926.25
2023-01-18T12:19:54.586Z,926.26
2023-01-18T12:20:54.560Z,926.27
2023-01-18T12:21:54.555Z,926.30
2023-01-18T12:22:54.539Z,926.32
2023-01-18T12:23:54.558Z,926.33
2023-01-18T12:24:54.517Z,926.36
2023-01-18T12:26:10.748Z,926.35
2023-01-18T12:26:55.527Z,926.38
2023-01-18T12:27:54.476Z,926.33